createdAt,value
2023-04-13T00:01:11.179Z,99.90
2023-04-13T00:03:39.340Z,99.90
2023-04-13T00:06:10.626Z,99.90
2023-04-13T00:08:37.377Z,99.90
2023-04-13T00:11:07.513Z,99.90
2023-04-13T00:13:40.856Z,99.90
2023-04-13T00:16:13.170Z,99.90
2023-04-13T00:18:39.992Z,99.90
2023-04-13T00:21:07.350Z,99.90
2023-04-13T00:23:35.893Z,99.90
2023-04-13T00:26:02.973Z,99.90
2023-04-13T00:28:29.966Z,99.90
2023-04-13T00:30:58.988Z,99.90
2023-04-13T00:33:25.912Z,99.90
2023-04-13T00:35:53.294Z,99.90
2023-04-13T00:38:19.899Z,99.90
2023-04-13T00:40:46.555Z,99.90
2023-04-13T00:43:13.204Z,99.90
2023-04-13T00:45:40.167Z,99.90
2023-04-13T00:48:10.726Z,99.90
2023-04-13T00:50:39.232Z,99.90
2023-04-13T00:53:09.705Z,99.90
2023-04-13T00:55:41.935Z,99.90
2023-04-13T00:58:09.060Z,99.90
2023-04-13T01:00:38.886Z,99.90
2023-04-13T01:03:05.608Z,99.90
2023-04-13T01:05:56.042Z,99.90
2023-04-13T01:08:36.024Z,99.90
2023-04-13T01:11:11.166Z,99.90
2023-04-13T01:13:45.248Z,99.90
2023-04-13T01:16:25.872Z,99.90
2023-04-13T01:18:53.964Z,99.90
2023-04-13T01:21:28.665Z,99.90
2023-04-13T01:24:39.027Z,99.90
2023-04-13T01:27:20.885Z,99.90
2023-04-13T01:29:49.483Z,99.90
2023-04-13T01:32:18.215Z,99.90
2023-04-13T01:34:45.585Z,99.90
2023-04-13T01:37:12.879Z,99.90
2023-04-13T01:39:39.820Z,99.90
2023-04-13T01:42:16.510Z,99.90
2023-04-13T01:44:43.672Z,99.90
2023-04-13T01:47:18.487Z,99.90
2023-04-13T01:50:03.920Z,99.90
2023-04-13T01:52:43.303Z,99.90
2023-04-13T01:55:13.557Z,99.90
2023-04-13T01:57:47.193Z,99.90
2023-04-13T02:00:17.712Z,99.90
2023-04-13T02:02:46.681Z,99.90
2023-04-13T02:05:15.168Z,99.90
2023-04-13T02:07:44.700Z,99.90
2023-04-13T02:10:11.922Z,99.90
2023-04-13T02:12:38.575Z,99.90
2023-04-13T02:15:06.585Z,99.90
2023-04-13T02:17:33.269Z,99.90
2023-04-13T02:20:00.547Z,99.90
2023-04-13T02:22:27.379Z,99.90
2023-04-13T02:24:55.059Z,99.90
2023-04-13T02:27:23.992Z,99.90
2023-04-13T02:29:52.417Z,99.90
2023-04-13T02:32:19.521Z,99.90
2023-04-13T02:34:47.405Z,99.90
2023-04-13T02:37:15.896Z,99.90
2023-04-13T02:39:42.667Z,99.90
2023-04-13T02:42:10.236Z,99.90
2023-04-13T02:44:38.500Z,99.90
2023-04-13T02:47:06.087Z,99.90
2023-04-13T02:49:33.766Z,99.90
2023-04-13T02:52:12.758Z,99.90
2023-04-13T02:54:54.252Z,99.90
2023-04-13T02:57:25.009Z,99.90
2023-04-13T02:59:53.062Z,99.90
2023-04-13T03:02:21.980Z,99.90
2023-04-13T03:04:49.005Z,99.90
2023-04-13T03:07:17.117Z,99.90
2023-04-13T03:09:48.141Z,99.90
2023-04-13T03:12:17.013Z,99.90
2023-04-13T03:14:44.775Z,99.90
2023-04-13T03:17:12.493Z,99.90
2023-04-13T03:19:41.846Z,99.90
2023-04-13T03:22:09.924Z,99.90
2023-04-13T03:24:41.967Z,99.90
2023-04-13T03:27:11.326Z,99.90
2023-04-13T03:29:43.883Z,99.90
2023-04-13T03:32:15.646Z,99.90
2023-04-13T03:34:47.124Z,99.90
2023-04-13T03:37:14.374Z,99.90
2023-04-13T03:39:41.347Z,99.90
2023-04-13T03:42:11.557Z,99.90
2023-04-13T03:44:43.545Z,99.90
2023-04-13T03:47:11.295Z,99.90
2023-04-13T03:49:37.923Z,99.90
2023-04-13T03:52:04.847Z,99.90
2023-04-13T03:54:36.673Z,99.90
2023-04-13T03:57:04.430Z,99.90
2023-04-13T03:59:32.567Z,99.90
2023-04-13T04:01:59.536Z,99.90
2023-04-13T04:04:27.051Z,99.90
2023-04-13T04:06:53.851Z,99.90
2023-04-13T04:09:20.676Z,99.90
2023-04-13T04:11:48.026Z,99.90
2023-04-13T04:14:22.857Z,99.90
2023-04-13T04:16:55.886Z,99.90
2023-04-13T04:19:23.176Z,99.90
2023-04-13T04:21:49.787Z,99.90
2023-04-13T04:24:22.903Z,99.90
2023-04-13T04:26:55.007Z,99.90
2023-04-13T04:29:33.896Z,99.90
2023-04-13T04:32:05.423Z,99.90
2023-04-13T04:34:32.153Z,99.90
2023-04-13T04:37:03.098Z,99.90
2023-04-13T04:39:35.303Z,99.90
2023-04-13T04:42:10.776Z,99.90
2023-04-13T04:44:39.860Z,99.90
2023-04-13T04:47:09.195Z,99.90
2023-04-13T04:49:50.789Z,99.90
2023-04-13T04:52:18.483Z,99.90
2023-04-13T04:54:45.169Z,99.90
2023-04-13T04:57:12.161Z,99.90
2023-04-13T04:59:40.731Z,99.90
2023-04-13T05:02:07.983Z,99.90
2023-04-13T05:04:34.808Z,99.90
2023-04-13T05:07:02.518Z,99.90
2023-04-13T05:09:34.321Z,99.90
2023-04-13T05:12:00.918Z,99.90
2023-04-13T05:14:27.590Z,99.90
2023-04-13T05:16:54.587Z,99.90
2023-04-13T05:19:29.182Z,99.90
2023-04-13T05:22:16.156Z,99.90
2023-04-13T05:24:49.573Z,99.90
2023-04-13T05:27:17.364Z,99.90
2023-04-13T05:29:46.950Z,99.90
2023-04-13T05:32:16.980Z,99.90
2023-04-13T05:34:45.601Z,99.90
2023-04-13T05:37:17.617Z,99.90
2023-04-13T05:39:45.055Z,99.90
2023-04-13T05:42:12.285Z,99.90
2023-04-13T05:44:43.531Z,99.90
2023-04-13T05:47:11.844Z,99.90
2023-04-13T05:49:40.815Z,99.90
2023-04-13T05:52:10.374Z,99.90
2023-04-13T05:54:42.681Z,99.90
2023-04-13T05:57:09.379Z,99.90
2023-04-13T05:59:40.137Z,99.90
2023-04-13T06:02:08.263Z,99.90
2023-04-13T06:04:36.133Z,99.90
2023-04-13T06:07:04.017Z,99.90
2023-04-13T06:09:31.250Z,99.90
2023-04-13T06:11:57.934Z,99.90
2023-04-13T06:14:25.176Z,99.90
2023-04-13T06:16:52.974Z,99.90
2023-04-13T06:19:19.927Z,99.90
2023-04-13T06:21:46.866Z,99.90
2023-04-13T06:24:14.186Z,99.90
2023-04-13T06:26:41.570Z,99.90
2023-04-13T06:29:08.543Z,99.90
2023-04-13T06:31:48.293Z,99.90
2023-04-13T06:34:19.015Z,99.90
2023-04-13T06:36:46.126Z,99.90
2023-04-13T06:39:15.689Z,99.90
2023-04-13T06:41:48.186Z,99.90
2023-04-13T06:44:35.060Z,99.90
2023-04-13T06:47:01.937Z,99.90
2023-04-13T06:49:33.547Z,99.90
2023-04-13T06:52:01.333Z,99.90
2023-04-13T06:54:28.870Z,99.90
2023-04-13T06:57:02.060Z,99.90
2023-04-13T06:59:28.777Z,99.90
2023-04-13T07:01:55.689Z,99.90
2023-04-13T07:04:23.534Z,99.90
2023-04-13T07:06:52.631Z,99.90
2023-04-13T07:09:20.359Z,99.90
2023-04-13T07:11:47.555Z,99.90
2023-04-13T07:14:16.532Z,99.90
2023-04-13T07:16:43.208Z,99.90
2023-04-13T07:19:10.672Z,99.90
2023-04-13T07:21:38.140Z,99.90
2023-04-13T07:24:05.931Z,99.90
2023-04-13T07:26:35.919Z,99.90
2023-04-13T07:29:03.330Z,99.90
2023-04-13T07:31:35.460Z,99.90
2023-04-13T07:34:02.477Z,99.90
2023-04-13T07:36:34.288Z,98.70
2023-04-13T07:39:08.749Z,98.10
2023-04-13T07:41:37.812Z,98.50
2023-04-13T07:44:07.202Z,97.20
2023-04-13T07:46:34.076Z,98.10
2023-04-13T07:49:01.130Z,98.60
2023-04-13T07:51:32.338Z,99.30
2023-04-13T07:53:59.338Z,99.00
2023-04-13T07:56:28.796Z,99.00
2023-04-13T07:58:55.426Z,98.20
2023-04-13T08:01:22.053Z,98.40
2023-04-13T08:03:49.336Z,98.20
2023-04-13T08:06:21.196Z,97.60
2023-04-13T08:08:48.114Z,98.80
2023-04-13T08:11:15.664Z,98.70
2023-04-13T08:13:44.479Z,98.40
2023-04-13T08:16:12.189Z,98.80
2023-04-13T08:18:41.083Z,98.40
2023-04-13T08:21:13.032Z,98.80
2023-04-13T08:23:42.065Z,99.40
2023-04-13T08:26:20.251Z,99.00
2023-04-13T08:28:50.889Z,99.70
2023-04-13T08:31:17.582Z,99.60
2023-04-13T08:33:51.477Z,99.80
2023-04-13T08:36:18.338Z,99.90
2023-04-13T08:38:50.900Z,99.90
2023-04-13T08:41:21.726Z,99.90
2023-04-13T08:43:51.530Z,99.90
2023-04-13T08:46:21.769Z,99.90
2023-04-13T08:48:54.707Z,99.90
2023-04-13T08:51:32.016Z,99.90
2023-04-13T08:53:59.453Z,99.90
2023-04-13T08:56:42.638Z,99.90
2023-04-13T08:59:15.291Z,99.90
2023-04-13T09:01:49.020Z,99.90
2023-04-13T09:04:18.004Z,99.90
2023-04-13T09:06:50.130Z,99.90
2023-04-13T09:09:19.200Z,99.90
2023-04-13T09:11:46.180Z,99.90
2023-04-13T09:14:14.584Z,99.90
2023-04-13T09:16:43.297Z,99.90
2023-04-13T09:19:29.764Z,99.90
2023-04-13T09:21:56.423Z,99.90
2023-04-13T09:24:23.388Z,99.90
2023-04-13T09:26:50.560Z,99.90
2023-04-13T09:29:19.352Z,99.90
2023-04-13T09:31:47.363Z,99.90
2023-04-13T09:34:25.255Z,99.90
2023-04-13T09:36:54.711Z,99.90
2023-04-13T09:39:29.459Z,99.90
2023-04-13T09:41:57.977Z,99.90
2023-04-13T09:44:25.584Z,99.90
2023-04-13T09:46:59.966Z,99.90
2023-04-13T09:49:43.286Z,99.90
2023-04-13T09:52:23.620Z,99.90
2023-04-13T09:54:51.921Z,99.90
2023-04-13T09:57:29.159Z,99.90
2023-04-13T10:00:00.249Z,99.90
2023-04-13T10:02:28.065Z,99.90
2023-04-13T10:04:55.685Z,99.90
2023-04-13T10:07:26.736Z,99.90
2023-04-13T10:09:54.365Z,99.90
2023-04-13T10:12:22.230Z,99.90
2023-04-13T10:14:52.011Z,99.90
2023-04-13T10:17:30.896Z,99.90
2023-04-13T10:20:01.679Z,99.90
2023-04-13T10:22:30.226Z,99.90
2023-04-13T10:24:57.491Z,99.90
2023-04-13T10:27:27.559Z,99.90
2023-04-13T10:29:54.947Z,99.90
2023-04-13T10:32:26.675Z,99.90
2023-04-13T10:34:55.151Z,99.90
2023-04-13T10:37:28.587Z,99.90
2023-04-13T10:40:06.533Z,99.90
2023-04-13T10:45:20.346Z,99.30
2023-04-13T10:47:47.406Z,98.70
2023-04-13T10:50:25.132Z,98.90
2023-04-13T10:53:03.765Z,97.30
2023-04-13T10:55:31.616Z,98.10
2023-04-13T10:57:59.548Z,98.70
2023-04-13T11:00:38.440Z,98.20
2023-04-13T11:03:15.074Z,99.00
2023-04-13T11:05:43.108Z,99.90
2023-04-13T11:08:10.073Z,99.60
2023-04-13T11:10:36.653Z,99.30
2023-04-13T11:13:03.282Z,97.30
2023-04-13T11:15:32.164Z,95.90
2023-04-13T11:18:00.583Z,96.00
2023-04-13T11:20:35.171Z,95.70
2023-04-13T11:23:06.090Z,96.50
2023-04-13T11:25:36.264Z,95.90
2023-04-13T11:28:04.662Z,94.10
2023-04-13T11:30:32.446Z,90.60
2023-04-13T11:33:00.812Z,90.60
2023-04-13T11:35:27.670Z,89.60
2023-04-13T11:37:55.941Z,90.40
2023-04-13T11:40:25.628Z,90.80
2023-04-13T11:42:54.193Z,90.40
2023-04-13T11:45:25.391Z,89.80
2023-04-13T11:47:53.343Z,90.30
2023-04-13T11:50:21.388Z,90.70
2023-04-13T11:52:51.246Z,90.50
2023-04-13T11:55:23.779Z,89.20
2023-04-13T11:57:52.664Z,89.60
2023-04-13T12:00:27.030Z,89.80
2023-04-13T12:05:27.149Z,89.70
2023-04-13T12:07:55.760Z,89.60
2023-04-13T12:10:26.794Z,89.30
2023-04-13T12:13:17.174Z,89.10
2023-04-13T12:16:04.947Z,89.90
2023-04-13T12:18:39.892Z,88.80
2023-04-13T12:21:06.920Z,88.00
2023-04-13T12:23:33.612Z,86.80
2023-04-13T12:26:25.867Z,86.90
2023-04-13T12:28:56.754Z,86.70
2023-04-13T12:31:23.686Z,86.00
2023-04-13T12:33:51.436Z,86.30
2023-04-13T12:36:18.065Z,87.20
2023-04-13T12:38:44.643Z,86.60
2023-04-13T12:41:12.208Z,86.90
2023-04-13T12:43:38.810Z,87.50
2023-04-13T12:46:05.497Z,87.70
2023-04-13T12:48:32.354Z,88.00
2023-04-13T12:50:58.955Z,85.90
2023-04-13T12:53:25.649Z,85.80
2023-04-13T12:55:52.234Z,86.10
2023-04-13T12:58:18.866Z,85.40
2023-04-13T13:00:45.492Z,85.50
2023-04-13T13:03:14.549Z,84.40
2023-04-13T13:05:41.971Z,85.50
2023-04-13T13:08:09.087Z,83.30
2023-04-13T13:10:37.070Z,83.80
2023-04-13T13:13:06.042Z,84.00
2023-04-13T13:15:33.161Z,85.10
2023-04-13T13:18:02.905Z,84.60
2023-04-13T13:20:29.837Z,84.40
2023-04-13T13:22:56.589Z,85.30
2023-04-13T13:25:23.426Z,82.20
2023-04-13T13:30:20.056Z,81.60
2023-04-13T13:32:46.859Z,81.40
2023-04-13T13:35:14.674Z,81.60
2023-04-13T13:37:41.346Z,79.20
2023-04-13T13:40:12.871Z,79.80
2023-04-13T13:42:50.507Z,80.00
2023-04-13T13:45:17.674Z,78.60
2023-04-13T13:47:51.293Z,74.40
2023-04-13T13:50:18.396Z,74.80
2023-04-13T13:52:59.736Z,73.30
2023-04-13T13:55:30.714Z,74.10
2023-04-13T13:57:57.605Z,74.10
2023-04-13T14:00:24.462Z,74.00
2023-04-13T14:02:51.435Z,74.60
2023-04-13T14:05:18.447Z,74.30
2023-04-13T14:07:45.717Z,74.60
2023-04-13T14:10:13.260Z,73.20
2023-04-13T14:12:42.872Z,71.90
2023-04-13T14:15:11.275Z,70.90
2023-04-13T14:17:38.841Z,70.40
2023-04-13T14:20:08.858Z,70.80
2023-04-13T14:22:36.659Z,70.70
2023-04-13T14:25:03.994Z,71.30
2023-04-13T14:27:30.893Z,73.00
2023-04-13T14:29:57.584Z,71.90
2023-04-13T14:32:24.258Z,71.10
2023-04-13T14:34:51.081Z,69.60
2023-04-13T14:37:17.687Z,70.20
2023-04-13T14:39:44.330Z,69.70
2023-04-13T14:42:12.147Z,70.10
2023-04-13T14:44:38.717Z,70.20
2023-04-13T14:47:08.666Z,70.50
2023-04-13T14:49:36.216Z,70.30
2023-04-13T14:52:03.681Z,70.60
2023-04-13T14:54:30.453Z,71.10
2023-04-13T14:56:57.806Z,71.00
2023-04-13T14:59:25.040Z,71.20
2023-04-13T15:01:51.834Z,71.90
2023-04-13T15:04:19.492Z,72.10
2023-04-13T15:06:49.187Z,72.70
2023-04-13T15:09:15.800Z,72.60
2023-04-13T15:11:42.824Z,72.30
2023-04-13T15:14:09.470Z,72.80
2023-04-13T15:16:36.334Z,71.80
2023-04-13T15:19:03.658Z,72.20
2023-04-13T15:21:31.617Z,73.60
2023-04-13T15:23:58.220Z,71.50
2023-04-13T15:26:24.959Z,72.10
2023-04-13T15:28:51.570Z,72.10
2023-04-13T15:31:18.165Z,72.10
2023-04-13T15:33:44.881Z,73.20
2023-04-13T15:36:16.036Z,74.40
2023-04-13T15:38:43.106Z,73.50
2023-04-13T15:41:10.998Z,71.60
2023-04-13T15:43:38.055Z,70.30
2023-04-13T15:46:04.991Z,68.70
2023-04-13T15:48:32.175Z,69.70
2023-04-13T15:51:00.157Z,70.50
2023-04-13T15:53:27.601Z,70.00
2023-04-13T15:55:54.560Z,71.10
2023-04-13T15:58:21.532Z,72.60
2023-04-13T16:00:57.881Z,72.30
2023-04-13T16:03:25.843Z,71.80
2023-04-13T16:05:52.662Z,71.50
2023-04-13T16:08:19.328Z,72.00
2023-04-13T16:10:46.584Z,71.70
2023-04-13T16:13:18.890Z,71.20
2023-04-13T16:15:54.418Z,71.40
2023-04-13T16:18:28.579Z,72.00
2023-04-13T16:20:58.866Z,71.80
2023-04-13T16:23:27.315Z,71.90
2023-04-13T16:25:54.598Z,69.50
2023-04-13T16:28:22.092Z,69.80
2023-04-13T16:30:49.393Z,70.50
2023-04-13T16:33:16.425Z,69.70
2023-04-13T16:35:43.151Z,69.40
2023-04-13T16:38:09.977Z,70.50
2023-04-13T16:40:36.898Z,71.30
2023-04-13T16:43:05.482Z,71.40
2023-04-13T16:45:32.928Z,72.50
2023-04-13T16:47:59.587Z,72.30
2023-04-13T16:50:30.393Z,71.90
2023-04-13T16:52:58.539Z,71.70
2023-04-13T16:55:27.960Z,72.80
2023-04-13T16:57:54.828Z,71.90
2023-04-13T17:00:21.826Z,72.50
2023-04-13T17:02:48.688Z,72.90
2023-04-13T17:05:15.948Z,71.10
2023-04-13T17:07:43.858Z,70.90
2023-04-13T17:10:12.716Z,70.90
2023-04-13T17:12:39.817Z,69.40
2023-04-13T17:15:08.579Z,69.50
2023-04-13T17:17:35.559Z,69.60
2023-04-13T17:20:02.235Z,69.20
2023-04-13T17:22:28.891Z,69.90
2023-04-13T17:24:55.711Z,69.90
2023-04-13T17:27:22.510Z,69.50
2023-04-13T17:29:49.742Z,69.00
2023-04-13T17:32:16.735Z,69.30
2023-04-13T17:34:44.505Z,70.20
2023-04-13T17:37:11.570Z,69.50
2023-04-13T17:39:41.982Z,68.60
2023-04-13T17:42:09.312Z,69.00
2023-04-13T17:44:35.969Z,69.60
2023-04-13T17:47:02.614Z,69.70
2023-04-13T17:49:29.531Z,69.80
2023-04-13T17:51:58.462Z,70.20
2023-04-13T17:54:26.138Z,70.70
2023-04-13T17:56:53.480Z,70.90
2023-04-13T17:59:21.053Z,70.00
2023-04-13T18:01:49.711Z,70.90
2023-04-13T18:04:16.811Z,71.40
2023-04-13T18:06:43.782Z,71.40
2023-04-13T18:09:12.608Z,71.90
2023-04-13T18:11:39.730Z,72.20
2023-04-13T18:14:08.882Z,72.60
2023-04-13T18:16:35.873Z,73.90
2023-04-13T18:19:02.677Z,75.00
2023-04-13T18:21:29.479Z,76.50
2023-04-13T18:23:56.699Z,76.90
2023-04-13T18:26:24.347Z,77.80
2023-04-13T18:28:51.125Z,78.10
2023-04-13T18:31:17.843Z,79.40
2023-04-13T18:33:45.094Z,80.00
2023-04-13T18:36:17.838Z,79.70
2023-04-13T18:38:45.287Z,80.30
2023-04-13T18:41:12.876Z,81.50
2023-04-13T18:43:39.753Z,81.80
2023-04-13T18:46:07.829Z,83.00
2023-04-13T18:48:35.066Z,83.40
2023-04-13T18:51:03.024Z,83.10
2023-04-13T18:53:29.814Z,82.80
2023-04-13T18:55:58.523Z,82.50
2023-04-13T18:58:25.374Z,83.80
2023-04-13T19:00:52.001Z,90.60
2023-04-13T19:03:18.805Z,81.80
2023-04-13T19:05:46.211Z,81.20
2023-04-13T19:08:13.415Z,81.50
2023-04-13T19:10:41.222Z,81.90
2023-04-13T19:13:07.840Z,82.90
2023-04-13T19:15:35.023Z,84.10
2023-04-13T19:18:02.172Z,85.00
2023-04-13T19:20:28.926Z,85.90
2023-04-13T19:22:55.618Z,86.20
2023-04-13T19:25:22.362Z,86.40
2023-04-13T19:27:50.081Z,86.60
2023-04-13T19:30:18.820Z,86.40
2023-04-13T19:32:46.917Z,86.50
2023-04-13T19:35:13.859Z,87.70
2023-04-13T19:37:41.557Z,88.30
2023-04-13T19:40:15.621Z,89.00
2023-04-13T19:42:44.186Z,89.20
2023-04-13T19:45:11.689Z,89.60
2023-04-13T19:47:39.721Z,90.10
2023-04-13T19:50:08.476Z,89.50
2023-04-13T19:52:35.397Z,90.10
2023-04-13T19:55:02.181Z,90.50
2023-04-13T19:57:29.342Z,90.70
2023-04-13T19:59:56.895Z,91.30
2023-04-13T20:02:24.024Z,91.50
2023-04-13T20:04:51.122Z,92.20
2023-04-13T20:07:18.259Z,89.80
2023-04-13T20:09:45.191Z,90.80
2023-04-13T20:12:12.269Z,92.20
2023-04-13T20:14:41.608Z,92.50
2023-04-13T20:17:08.887Z,93.30
2023-04-13T20:19:36.280Z,91.20
2023-04-13T20:22:04.498Z,86.40
2023-04-13T20:24:31.761Z,84.80
2023-04-13T20:26:58.753Z,86.20
2023-04-13T20:29:26.931Z,87.90
2023-04-13T20:31:54.341Z,89.80
2023-04-13T20:34:21.827Z,91.40
2023-04-13T20:36:49.454Z,93.10
2023-04-13T20:39:21.909Z,94.40
2023-04-13T20:41:54.304Z,95.60
2023-04-13T20:44:25.521Z,96.30
2023-04-13T20:46:55.233Z,96.70
2023-04-13T20:49:23.925Z,96.30
2023-04-13T20:51:55.757Z,96.50
2023-04-13T20:54:23.180Z,96.20
2023-04-13T20:56:49.808Z,96.00
2023-04-13T20:59:17.864Z,95.10
2023-04-13T21:01:44.543Z,94.80
2023-04-13T21:04:11.905Z,95.40
2023-04-13T21:06:38.547Z,95.40
2023-04-13T21:09:05.927Z,95.20
2023-04-13T21:11:32.559Z,94.10
2023-04-13T21:13:59.724Z,94.20
2023-04-13T21:16:26.723Z,94.10
2023-04-13T21:18:54.134Z,93.30
2023-04-13T21:21:24.933Z,93.30
2023-04-13T21:23:52.857Z,92.40
2023-04-13T21:26:20.277Z,92.20
2023-04-13T21:28:47.590Z,91.80
2023-04-13T21:31:14.342Z,91.70
2023-04-13T21:33:41.262Z,92.20
2023-04-13T21:38:41.091Z,91.10
2023-04-13T21:41:18.612Z,90.80
2023-04-13T21:43:45.647Z,90.40
2023-04-13T21:46:13.463Z,89.40
2023-04-13T21:48:40.601Z,89.40
2023-04-13T21:51:08.471Z,86.00
2023-04-13T21:53:36.052Z,85.00
2023-04-13T21:56:03.841Z,85.40
2023-04-13T21:58:46.064Z,85.80
2023-04-13T22:01:13.701Z,82.90
2023-04-13T22:03:42.528Z,83.80
2023-04-13T22:06:11.014Z,85.80
2023-04-13T22:08:37.925Z,86.80
2023-04-13T22:11:04.659Z,86.30
2023-04-13T22:13:31.664Z,86.90
2023-04-13T22:15:58.520Z,87.30
2023-04-13T22:18:26.300Z,86.80
2023-04-13T22:20:53.298Z,87.30
2023-04-13T22:23:20.203Z,87.80
2023-04-13T22:25:58.416Z,88.30
2023-04-13T22:28:28.216Z,88.20
2023-04-13T22:30:54.938Z,88.20
2023-04-13T22:33:21.905Z,89.00
2023-04-13T22:35:51.898Z,89.00
2023-04-13T22:38:19.305Z,88.90
2023-04-13T22:40:45.924Z,87.90
2023-04-13T22:43:12.635Z,89.10
2023-04-13T22:45:39.311Z,89.40
2023-04-13T22:48:06.211Z,89.20
2023-04-13T22:50:32.893Z,88.50
2023-04-13T22:53:00.141Z,89.20
2023-04-13T22:55:26.812Z,88.90
2023-04-13T22:57:53.425Z,89.10
2023-04-13T23:00:20.932Z,89.70
2023-04-13T23:02:50.262Z,90.60
2023-04-13T23:05:17.379Z,90.90
2023-04-13T23:07:43.977Z,91.30
2023-04-13T23:10:10.619Z,89.60
2023-04-13T23:12:37.302Z,90.30
2023-04-13T23:15:04.286Z,90.60
2023-04-13T23:17:30.955Z,92.10
2023-04-13T23:19:57.605Z,92.80
2023-04-13T23:22:24.254Z,93.20
2023-04-13T23:24:51.124Z,94.00
2023-04-13T23:27:18.374Z,94.10
2023-04-13T23:29:49.239Z,93.80
2023-04-13T23:32:16.174Z,94.20
2023-04-13T23:34:43.007Z,94.20
2023-04-13T23:37:09.681Z,94.30
2023-04-13T23:39:37.407Z,94.10
2023-04-13T23:42:04.226Z,94.70
2023-04-13T23:44:31.193Z,95.30
2023-04-13T23:46:57.818Z,95.30
2023-04-13T23:49:24.888Z,94.60
2023-04-13T23:51:51.617Z,94.80
2023-04-13T23:54:18.247Z,95.50
2023-04-13T23:56:44.947Z,95.80
2023-04-13T23:59:11.925Z,95.50
